Time;durP1;ratioP1;P1;durP2;ratioP2;P2;SDS_P1;SDS_P2;PMS_P1;PMS_P2;Temp;Humidity;BMP_temperature;BMP_pressure;BME280_temperature;BME280_humidity;BME280_pressure;Samples;Min_cycle;Max_cycle;Signal;HPM_P1;HPM_P2
2022/03/10 00:00:43;;;;;;;9.88;7.03;;;0.60;99.90;;;;;;476819;249;27987;-74
2022/03/10 00:02:45;;;;;;;10.65;7.75;;;0.60;99.90;;;;;;476821;249;27515;-72
2022/03/10 00:04:46;;;;;;;11.27;7.78;;;0.50;99.90;;;;;;476855;249;27536;-71
2022/03/10 00:06:47;;;;;;;10.02;6.65;;;0.50;99.90;;;;;;476856;249;27961;-72
2022/03/10 00:08:49;;;;;;;10.50;7.32;;;0.50;99.90;;;;;;476847;249;28034;-72
2022/03/10 00:10:50;;;;;;;12.20;7.50;;;0.50;99.90;;;;;;476840;249;28073;-74
2022/03/10 00:12:51;;;;;;;9.65;7.12;;;0.50;99.90;;;;;;476830;249;27642;-71
2022/03/10 00:14:52;;;;;;;10.05;7.55;;;0.40;99.90;;;;;;476867;249;27683;-73
2022/03/10 00:16:53;;;;;;;8.20;6.20;;;0.50;99.90;;;;;;476819;249;27515;-72
2022/03/10 00:18:55;;;;;;;9.73;6.85;;;0.50;99.90;;;;;;476865;249;27572;-72
2022/03/10 00:20:56;;;;;;;11.32;6.85;;;0.40;99.90;;;;;;476869;249;27585;-71
2022/03/10 00:22:58;;;;;;;8.95;6.10;;;0.30;99.90;;;;;;476840;249;27532;-71
2022/03/10 00:24:59;;;;;;;9.63;7.32;;;0.30;99.90;;;;;;476836;249;27523;-71
2022/03/10 00:27:01;;;;;;;8.13;6.15;;;0.30;99.90;;;;;;476818;249;27585;-72
2022/03/10 00:29:02;;;;;;;8.95;6.50;;;0.20;99.90;;;;;;476848;249;28263;-71
2022/03/10 00:31:03;;;;;;;10.20;6.53;;;0.20;99.90;;;;;;476811;249;27946;-71
2022/03/10 00:33:04;;;;;;;9.90;7.10;;;0.20;99.90;;;;;;476842;249;28137;-73
2022/03/10 00:35:06;;;;;;;10.05;6.43;;;0.20;99.90;;;;;;476820;249;27967;-71
2022/03/10 00:37:07;;;;;;;10.63;6.85;;;0.20;99.90;;;;;;476803;249;27545;-72
2022/03/10 00:39:08;;;;;;;10.90;6.75;;;0.20;99.90;;;;;;476827;249;27537;-72
2022/03/10 00:41:09;;;;;;;7.57;5.78;;;0.20;99.90;;;;;;476866;249;27606;-72
2022/03/10 00:43:11;;;;;;;8.73;6.53;;;0.20;99.90;;;;;;476854;249;27546;-72
2022/03/10 00:45:12;;;;;;;10.63;6.65;;;0.20;99.90;;;;;;476819;249;27625;-71
2022/03/10 00:47:13;;;;;;;9.00;6.05;;;0.20;99.90;;;;;;476828;249;28042;-72
2022/03/10 00:49:14;;;;;;;8.23;6.68;;;0.20;99.90;;;;;;476869;249;27592;-72
2022/03/10 00:51:16;;;;;;;9.45;6.40;;;0.20;99.90;;;;;;476836;249;27541;-71
2022/03/10 00:53:17;;;;;;;10.45;6.85;;;0.20;99.90;;;;;;476870;249;28119;-72
2022/03/10 00:55:18;;;;;;;10.23;6.55;;;0.20;99.90;;;;;;476883;249;28103;-72
2022/03/10 00:57:19;;;;;;;9.18;6.90;;;0.20;99.90;;;;;;476885;249;28032;-72
2022/03/10 00:59:21;;;;;;;10.15;7.00;;;0.30;99.90;;;;;;476779;249;27563;-71
2022/03/10 01:01:22;;;;;;;9.57;7.18;;;0.30;99.90;;;;;;476863;249;27550;-71
2022/03/10 01:03:23;;;;;;;9.98;6.53;;;0.30;99.90;;;;;;476853;249;27627;-71
2022/03/10 01:05:24;;;;;;;13.05;8.23;;;0.30;99.90;;;;;;476867;249;27511;-72
2022/03/10 01:07:26;;;;;;;8.38;6.20;;;0.30;99.90;;;;;;476853;249;27538;-71
2022/03/10 01:09:27;;;;;;;8.95;6.15;;;0.20;99.90;;;;;;476839;249;27881;-71
2022/03/10 01:11:28;;;;;;;8.30;7.40;;;0.10;99.90;;;;;;476871;249;27537;-72
2022/03/10 01:13:29;;;;;;;9.07;6.43;;;0.00;99.90;;;;;;476860;249;27557;-74
2022/03/10 01:15:31;;;;;;;10.02;6.72;;;0.00;99.90;;;;;;476817;249;27594;-72
2022/03/10 01:17:32;;;;;;;8.57;6.93;;;-0.10;99.90;;;;;;476802;249;28073;-71
2022/03/10 01:19:33;;;;;;;11.52;7.43;;;0.00;99.90;;;;;;476815;249;27983;-71
2022/03/10 01:21:34;;;;;;;11.57;7.45;;;0.00;99.90;;;;;;476822;249;28338;-72
2022/03/10 01:23:36;;;;;;;10.52;6.87;;;-0.10;99.90;;;;;;476847;249;27540;-72
2022/03/10 01:25:37;;;;;;;12.05;6.82;;;-0.20;99.90;;;;;;476829;249;27546;-73
2022/03/10 01:27:38;;;;;;;11.50;7.22;;;-0.20;99.90;;;;;;476795;249;27560;-72
2022/03/10 01:29:40;;;;;;;8.93;6.30;;;-0.20;99.90;;;;;;476802;249;27633;-72
2022/03/10 01:31:41;;;;;;;9.60;7.30;;;-0.20;99.90;;;;;;476842;249;27563;-71
2022/03/10 01:33:42;;;;;;;7.95;6.30;;;-0.20;99.90;;;;;;476842;249;27586;-72
2022/03/10 01:35:43;;;;;;;10.32;7.25;;;-0.30;99.90;;;;;;476848;249;27969;-71
2022/03/10 01:37:45;;;;;;;7.65;6.75;;;-0.30;99.90;;;;;;476881;249;28155;-71
2022/03/10 01:39:46;;;;;;;10.50;7.12;;;-0.40;99.90;;;;;;476871;249;28347;-72
2022/03/10 01:41:47;;;;;;;9.98;7.05;;;-0.40;99.90;;;;;;476835;249;27520;-71
2022/03/10 01:43:48;;;;;;;9.55;6.53;;;-0.40;99.90;;;;;;476890;249;27555;-72
2022/03/10 01:45:50;;;;;;;9.95;6.85;;;-0.40;99.90;;;;;;476867;249;27605;-72
2022/03/10 01:47:51;;;;;;;9.77;6.35;;;-0.40;99.90;;;;;;476827;249;27598;-71
2022/03/10 01:49:52;;;;;;;7.80;6.15;;;-0.40;99.90;;;;;;476843;249;27565;-73
2022/03/10 01:51:53;;;;;;;10.45;6.50;;;-0.40;99.90;;;;;;476859;249;27548;-72
2022/03/10 01:53:55;;;;;;;10.52;6.80;;;-0.30;99.90;;;;;;476843;249;28131;-73
2022/03/10 01:55:56;;;;;;;9.30;6.50;;;-0.40;99.90;;;;;;476835;249;27957;-71
2022/03/10 01:57:57;;;;;;;10.02;6.22;;;-0.30;99.90;;;;;;476801;249;28060;-74
2022/03/10 01:59:58;;;;;;;10.38;7.10;;;-0.30;99.90;;;;;;476842;249;27552;-71
2022/03/10 02:02:00;;;;;;;8.85;6.05;;;-0.20;99.90;;;;;;476861;249;27511;-72
2022/03/10 02:04:01;;;;;;;7.55;5.90;;;-0.20;99.90;;;;;;476872;249;27661;-71
2022/03/10 02:06:02;;;;;;;8.82;6.05;;;-0.20;99.90;;;;;;476886;249;27606;-71
2022/03/10 02:10:20;;;;;;;7.70;6.03;;;-0.20;99.90;;;;;;472592;251;27424;-71
2022/03/10 02:12:21;;;;;;;7.95;5.82;;;-0.20;99.90;;;;;;458268;258;27725;-72
2022/03/10 02:19:01;;;;;;;9.18;5.93;;;-0.40;99.90;;;;;;476874;249;28072;-75
2022/03/10 02:21:02;;;;;;;10.60;6.65;;;-0.40;99.90;;;;;;476864;249;28793;-72
2022/03/10 02:23:04;;;;;;;7.22;5.78;;;-0.40;99.90;;;;;;476862;249;27547;-72
2022/03/10 02:25:05;;;;;;;9.23;6.30;;;-0.40;99.90;;;;;;476863;249;27511;-72
2022/03/10 02:27:07;;;;;;;10.52;6.53;;;-0.40;99.90;;;;;;476824;249;27554;-72
2022/03/10 02:29:07;;;;;;;10.15;6.07;;;-0.50;99.90;;;;;;476839;249;27527;-72
2022/03/10 02:31:09;;;;;;;8.38;6.03;;;-0.40;99.90;;;;;;476874;249;27590;-71
2022/03/10 02:33:10;;;;;;;9.95;6.60;;;-0.50;99.90;;;;;;476830;249;27547;-73
2022/03/10 02:35:11;;;;;;;7.30;5.80;;;-0.50;99.90;;;;;;476830;249;28046;-72
2022/03/10 02:37:12;;;;;;;8.82;6.47;;;-0.40;99.90;;;;;;476801;249;28015;-72
2022/03/10 02:39:14;;;;;;;8.80;5.82;;;-0.40;99.90;;;;;;476843;249;27952;-72
2022/03/10 02:41:15;;;;;;;8.93;6.65;;;-0.40;99.90;;;;;;476854;249;27512;-72
2022/03/10 02:43:16;;;;;;;8.52;6.35;;;-0.40;99.90;;;;;;476815;249;27622;-73
2022/03/10 02:45:17;;;;;;;7.75;6.00;;;-0.40;99.90;;;;;;476838;249;27507;-73
2022/03/10 02:47:19;;;;;;;9.00;6.18;;;-0.50;99.90;;;;;;476837;249;27554;-72
2022/03/10 02:49:20;;;;;;;7.97;6.12;;;-0.50;99.90;;;;;;476834;248;27556;-72
2022/03/10 02:51:21;;;;;;;7.95;5.90;;;-0.60;99.90;;;;;;476841;249;28046;-72
2022/03/10 02:53:22;;;;;;;10.15;7.15;;;-0.60;99.90;;;;;;476849;249;28126;-73
2022/03/10 02:55:24;;;;;;;9.20;6.80;;;-0.60;99.90;;;;;;476832;249;27498;-72
2022/03/10 02:57:27;;;;;;;10.93;6.85;;;-0.60;99.90;;;;;;476827;249;27576;-72
2022/03/10 02:59:26;;;;;;;11.40;7.22;;;-0.60;99.90;;;;;;476714;248;27558;-73
2022/03/10 03:01:28;;;;;;;10.45;7.05;;;-0.60;99.90;;;;;;476846;249;27604;-73
2022/03/10 03:03:29;;;;;;;10.60;7.82;;;-0.70;99.90;;;;;;476804;249;27673;-73
2022/03/10 03:05:30;;;;;;;10.60;6.80;;;-0.70;99.90;;;;;;476831;249;27508;-72
2022/03/10 03:07:31;;;;;;;9.95;6.87;;;-0.70;99.90;;;;;;476824;249;28054;-73
2022/03/10 03:09:33;;;;;;;8.98;6.28;;;-0.60;99.90;;;;;;476858;249;28187;-73
2022/03/10 03:11:34;;;;;;;7.80;6.50;;;-0.70;99.90;;;;;;476861;249;27978;-72
2022/03/10 03:13:35;;;;;;;9.07;6.22;;;-0.70;99.90;;;;;;476833;249;27571;-73
2022/03/10 03:15:36;;;;;;;11.25;6.85;;;-0.70;99.90;;;;;;476856;249;27643;-72
2022/03/10 03:17:38;;;;;;;10.95;6.55;;;-0.60;99.90;;;;;;476803;249;27554;-73
2022/03/10 03:19:39;;;;;;;10.25;7.18;;;-0.60;99.90;;;;;;476860;249;27912;-75
2022/03/10 03:21:40;;;;;;;11.20;7.30;;;-0.60;99.90;;;;;;476883;249;27525;-72
2022/03/10 03:23:41;;;;;;;10.88;7.60;;;-0.60;99.90;;;;;;476847;249;28497;-73
2022/03/10 03:25:43;;;;;;;11.35;6.70;;;-0.60;99.90;;;;;;476833;249;27995;-72
2022/03/10 03:27:44;;;;;;;11.02;7.12;;;-0.60;99.90;;;;;;476836;249;28005;-72
2022/03/10 03:29:45;;;;;;;9.48;6.62;;;-0.60;99.90;;;;;;476833;249;27541;-73
2022/03/10 03:31:46;;;;;;;10.38;6.80;;;-0.60;99.90;;;;;;476836;249;27518;-72
2022/03/10 03:33:50;;;;;;;8.65;6.00;;;-0.60;99.90;;;;;;476863;249;27548;-72
2022/03/10 03:35:49;;;;;;;9.75;5.90;;;-0.60;99.90;;;;;;476761;249;27518;-72
2022/03/10 03:37:50;;;;;;;10.00;6.70;;;-0.60;99.90;;;;;;476817;249;27659;-72
2022/03/10 03:39:51;;;;;;;8.07;5.82;;;-0.70;99.90;;;;;;476917;249;27665;-75
2022/03/10 03:41:53;;;;;;;8.68;6.37;;;-0.60;99.90;;;;;;476904;249;28044;-72
2022/03/10 03:43:54;;;;;;;8.15;6.10;;;-0.70;99.90;;;;;;476854;249;27673;-72
2022/03/10 03:45:56;;;;;;;10.57;7.03;;;-0.60;99.90;;;;;;476867;249;27583;-72
2022/03/10 03:47:56;;;;;;;10.25;7.15;;;-0.60;99.90;;;;;;476870;249;27520;-72
2022/03/10 03:49:58;;;;;;;9.40;6.35;;;-0.70;99.90;;;;;;476864;249;27654;-72
2022/03/10 03:51:59;;;;;;;8.85;6.45;;;-0.70;99.90;;;;;;476846;249;27513;-72
2022/03/10 03:54:00;;;;;;;9.30;6.80;;;-0.70;99.90;;;;;;476843;249;27938;-73
2022/03/10 03:56:02;;;;;;;10.00;6.15;;;-0.70;99.90;;;;;;476809;249;28046;-72
2022/03/10 03:58:03;;;;;;;9.98;7.00;;;-0.70;99.90;;;;;;476854;249;28013;-72
2022/03/10 04:00:04;;;;;;;10.05;6.43;;;-0.70;99.90;;;;;;476864;249;27612;-74
2022/03/10 04:02:05;;;;;;;8.38;6.05;;;-0.80;99.90;;;;;;476842;249;27503;-72
2022/03/10 04:04:07;;;;;;;9.95;6.87;;;-0.80;99.90;;;;;;476839;249;27556;-72
2022/03/10 04:06:09;;;;;;;9.23;6.53;;;-0.70;99.90;;;;;;476863;249;27538;-72
2022/03/10 04:08:10;;;;;;;7.85;5.85;;;-0.80;99.90;;;;;;476845;249;27586;-74
2022/03/10 04:10:11;;;;;;;7.32;6.03;;;-0.80;99.90;;;;;;476832;249;27646;-72
2022/03/10 04:12:13;;;;;;;12.52;7.07;;;-0.80;99.90;;;;;;476838;249;28818;-73
2022/03/10 04:14:14;;;;;;;11.27;7.03;;;-0.90;99.90;;;;;;476879;249;28029;-72
2022/03/10 04:16:15;;;;;;;10.23;6.57;;;-0.90;99.90;;;;;;476818;249;27565;-72
2022/03/10 04:18:17;;;;;;;12.95;7.15;;;-0.90;99.90;;;;;;476844;249;27579;-75
2022/03/10 04:20:18;;;;;;;9.57;7.15;;;-0.90;99.90;;;;;;476835;249;27522;-72
2022/03/10 04:22:19;;;;;;;11.60;7.50;;;-0.90;99.90;;;;;;476824;249;27582;-72
2022/03/10 04:24:20;;;;;;;10.35;6.95;;;-0.90;99.90;;;;;;476792;249;27619;-72
2022/03/10 04:26:21;;;;;;;13.48;7.87;;;-1.00;99.90;;;;;;476812;249;27566;-72
2022/03/10 04:28:23;;;;;;;11.40;7.68;;;-1.00;99.90;;;;;;476872;249;28015;-74
2022/03/10 04:30:24;;;;;;;10.48;6.55;;;-1.00;99.90;;;;;;476854;249;27993;-72
2022/03/10 04:32:25;;;;;;;10.63;6.65;;;-1.00;99.90;;;;;;476741;249;27575;-73
2022/03/10 04:34:26;;;;;;;13.48;8.45;;;-1.00;99.90;;;;;;476806;249;27526;-72
2022/03/10 04:36:28;;;;;;;11.80;6.97;;;-1.00;99.90;;;;;;476827;249;27546;-72
2022/03/10 04:38:29;;;;;;;9.65;6.25;;;-1.00;99.90;;;;;;476829;249;28019;-73
2022/03/10 04:40:31;;;;;;;9.10;6.82;;;-0.90;99.90;;;;;;476822;249;27534;-71
2022/03/10 04:42:31;;;;;;;13.25;6.93;;;-0.90;99.90;;;;;;476832;249;27564;-72
2022/03/10 04:44:33;;;;;;;8.32;6.60;;;-0.90;99.90;;;;;;476820;249;28018;-72
2022/03/10 04:46:34;;;;;;;9.05;6.05;;;-1.00;99.90;;;;;;476825;249;28014;-72
2022/03/10 04:48:35;;;;;;;11.57;7.68;;;-0.90;99.90;;;;;;476826;249;27561;-73
2022/03/10 04:50:38;;;;;;;9.82;7.50;;;-0.90;99.90;;;;;;476838;249;27624;-71
2022/03/10 04:52:39;;;;;;;9.48;7.45;;;-0.90;99.90;;;;;;476801;249;27507;-72
2022/03/10 04:54:40;;;;;;;9.82;7.35;;;-0.90;99.90;;;;;;476872;249;27543;-74
2022/03/10 04:56:41;;;;;;;11.70;7.95;;;-0.90;99.90;;;;;;476857;249;28489;-72
2022/03/10 04:58:43;;;;;;;9.50;7.00;;;-0.90;99.90;;;;;;476831;249;28029;-71
2022/03/10 05:00:44;;;;;;;7.75;6.30;;;-0.90;99.90;;;;;;476820;249;27540;-73
2022/03/10 05:02:45;;;;;;;11.25;6.95;;;-0.90;99.90;;;;;;476836;249;27514;-72
2022/03/10 05:04:46;;;;;;;9.77;6.47;;;-0.90;99.90;;;;;;476748;249;27631;-72
2022/03/10 05:06:48;;;;;;;9.23;6.57;;;-0.90;99.90;;;;;;476817;249;27554;-71
2022/03/10 05:08:49;;;;;;;8.98;6.47;;;-0.90;99.90;;;;;;476787;249;27524;-72
2022/03/10 05:10:50;;;;;;;8.23;5.85;;;-0.90;99.90;;;;;;476839;249;27547;-73
2022/03/10 05:12:52;;;;;;;8.45;6.50;;;-0.90;99.90;;;;;;476846;249;27592;-72
2022/03/10 05:14:53;;;;;;;10.15;6.60;;;-0.90;99.90;;;;;;476836;249;28019;-72
2022/03/10 05:16:54;;;;;;;7.97;6.25;;;-0.90;99.90;;;;;;476808;249;29011;-72
2022/03/10 05:18:55;;;;;;;9.38;6.65;;;-0.90;99.90;;;;;;476820;249;27949;-72
2022/03/10 05:20:56;;;;;;;9.90;6.60;;;-0.90;99.90;;;;;;476790;249;27579;-74
2022/03/10 05:22:58;;;;;;;8.75;6.72;;;-0.90;99.90;;;;;;476730;249;27578;-72
2022/03/10 05:24:59;;;;;;;8.80;6.40;;;-0.90;99.90;;;;;;476730;249;27668;-72
2022/03/10 05:27:01;;;;;;;10.85;6.70;;;-0.90;99.90;;;;;;476846;249;27550;-72
2022/03/10 05:29:01;;;;;;;10.27;6.90;;;-1.00;99.90;;;;;;476867;248;27551;-72
2022/03/10 05:31:03;;;;;;;8.40;7.07;;;-1.00;99.90;;;;;;476858;249;27569;-72
2022/03/10 05:33:04;;;;;;;13.02;7.43;;;-1.00;99.90;;;;;;476789;249;27959;-71
2022/03/10 05:35:06;;;;;;;12.00;7.40;;;-1.10;99.90;;;;;;476781;249;28035;-72
2022/03/10 05:37:06;;;;;;;9.57;6.60;;;-1.10;99.90;;;;;;476813;249;27548;-72
2022/03/10 05:39:08;;;;;;;10.48;7.70;;;-1.10;99.90;;;;;;476824;249;27577;-72
2022/03/10 05:41:09;;;;;;;9.30;7.47;;;-1.10;99.90;;;;;;476842;249;27571;-73
2022/03/10 05:43:10;;;;;;;9.48;7.00;;;-1.10;99.90;;;;;;476810;249;27498;-71
2022/03/10 05:45:11;;;;;;;11.70;7.00;;;-1.10;99.90;;;;;;476817;249;27556;-72
2022/03/10 05:47:13;;;;;;;9.98;6.85;;;-1.20;99.90;;;;;;476838;249;27662;-72
2022/03/10 05:49:14;;;;;;;10.38;7.18;;;-1.30;99.90;;;;;;476844;249;27557;-71
2022/03/10 05:51:15;;;;;;;12.35;7.93;;;-1.30;99.90;;;;;;476834;249;28132;-72
2022/03/10 05:53:16;;;;;;;11.95;8.43;;;-1.30;99.90;;;;;;476795;249;28068;-72
2022/03/10 05:55:18;;;;;;;11.68;7.47;;;-1.30;99.90;;;;;;476820;249;27552;-73
2022/03/10 05:57:19;;;;;;;11.43;6.55;;;-1.30;99.90;;;;;;476831;249;27613;-72
2022/03/10 05:59:20;;;;;;;12.95;7.32;;;-1.20;99.90;;;;;;476840;249;27520;-71
2022/03/10 06:01:21;;;;;;;10.88;7.43;;;-1.20;99.90;;;;;;476826;249;27630;-72
2022/03/10 06:03:24;;;;;;;9.77;6.95;;;-1.10;99.90;;;;;;476800;249;27559;-72
2022/03/10 06:05:25;;;;;;;11.18;7.25;;;-1.10;99.90;;;;;;476821;249;27586;-72
2022/03/10 06:07:26;;;;;;;11.65;7.57;;;-1.10;99.90;;;;;;476808;249;28016;-72
2022/03/10 06:09:27;;;;;;;13.73;8.68;;;-1.10;99.90;;;;;;476840;249;28029;-74
2022/03/10 06:11:29;;;;;;;11.27;8.43;;;-1.20;99.90;;;;;;476850;249;27548;-72
2022/03/10 06:13:30;;;;;;;15.80;7.82;;;-1.20;99.90;;;;;;476828;249;27538;-71
2022/03/10 06:15:31;;;;;;;14.55;9.27;;;-1.20;99.90;;;;;;476829;249;27565;-72
2022/03/10 06:17:32;;;;;;;12.05;8.20;;;-1.20;99.90;;;;;;476813;249;27651;-72
2022/03/10 06:19:34;;;;;;;10.98;7.70;;;-1.20;99.90;;;;;;476862;249;27569;-74
2022/03/10 06:21:35;;;;;;;12.05;8.10;;;-1.20;99.90;;;;;;476829;249;27511;-72
2022/03/10 06:23:36;;;;;;;17.08;9.13;;;-1.20;99.90;;;;;;476812;249;28017;-73
2022/03/10 06:25:38;;;;;;;12.63;8.60;;;-1.10;99.90;;;;;;476857;249;28067;-72
2022/03/10 06:27:39;;;;;;;11.52;8.40;;;-1.10;99.90;;;;;;476813;249;27542;-73
2022/03/10 06:29:40;;;;;;;12.70;7.97;;;-1.10;99.90;;;;;;476860;249;27589;-74
2022/03/10 06:31:42;;;;;;;12.32;7.47;;;-1.10;99.90;;;;;;476834;249;27500;-72
2022/03/10 06:33:43;;;;;;;11.38;7.78;;;-1.00;99.90;;;;;;476844;249;27581;-72
2022/03/10 06:35:44;;;;;;;11.70;7.37;;;-1.00;99.90;;;;;;476831;249;27935;-72
2022/03/10 06:37:46;;;;;;;10.55;7.70;;;-1.00;99.90;;;;;;476808;249;27543;-72
2022/03/10 06:39:46;;;;;;;13.35;8.57;;;-0.90;99.90;;;;;;476809;249;28020;-74
2022/03/10 06:41:48;;;;;;;12.15;7.25;;;-0.90;99.90;;;;;;476848;248;27961;-72
2022/03/10 06:43:49;;;;;;;13.20;8.10;;;-0.90;99.90;;;;;;476848;249;27542;-73
2022/03/10 06:45:50;;;;;;;10.88;7.28;;;-0.90;99.90;;;;;;476868;249;27587;-71
2022/03/10 06:47:51;;;;;;;10.30;7.22;;;-0.80;99.90;;;;;;476892;249;27630;-72
2022/03/10 06:49:53;;;;;;;11.15;7.45;;;-0.80;99.90;;;;;;476915;249;27582;-72
2022/03/10 06:51:54;;;;;;;10.07;7.10;;;-0.70;99.90;;;;;;476883;249;27532;-72
2022/03/10 06:53:55;;;;;;;12.70;8.35;;;-0.70;99.90;;;;;;476842;249;27543;-72
2022/03/10 06:55:56;;;;;;;13.38;7.72;;;-0.70;99.90;;;;;;476859;249;27988;-71
2022/03/10 06:57:58;;;;;;;12.07;8.25;;;-0.70;99.90;;;;;;476849;249;28041;-72
2022/03/10 07:00:00;;;;;;;16.20;9.27;;;-0.70;99.90;;;;;;476870;249;27556;-73
2022/03/10 07:02:00;;;;;;;13.38;8.18;;;-0.60;99.90;;;;;;476817;249;27520;-72
2022/03/10 07:04:01;;;;;;;11.70;7.85;;;-0.60;99.90;;;;;;476823;249;27546;-72
2022/03/10 07:06:03;;;;;;;14.27;8.77;;;-0.50;99.90;;;;;;476803;249;27574;-71
2022/03/10 07:08:04;;;;;;;13.05;8.75;;;-0.60;99.90;;;;;;476828;249;27515;-72
2022/03/10 07:10:05;;;;;;;11.68;8.10;;;-0.50;99.90;;;;;;476861;249;28071;-73
2022/03/10 07:12:06;;;;;;;13.50;8.80;;;-0.40;99.90;;;;;;476861;249;28033;-72
2022/03/10 07:14:08;;;;;;;13.30;9.60;;;-0.40;99.90;;;;;;476836;249;27621;-73
2022/03/10 07:16:09;;;;;;;15.05;9.05;;;-0.30;99.90;;;;;;476902;249;27654;-72
2022/03/10 07:18:10;;;;;;;12.45;8.70;;;-0.30;99.90;;;;;;476924;249;27526;-72
2022/03/10 07:20:14;;;;;;;14.63;9.93;;;-0.20;99.90;;;;;;476817;249;27551;-73
2022/03/10 07:22:13;;;;;;;13.57;9.73;;;-0.20;99.90;;;;;;476795;249;28110;-72
2022/03/10 07:24:14;;;;;;;11.90;8.43;;;-0.10;99.90;;;;;;476870;249;28006;-72
2022/03/10 07:26:15;;;;;;;12.25;8.18;;;-0.10;99.90;;;;;;476851;249;27547;-75
2022/03/10 07:28:17;;;;;;;11.23;7.75;;;0.00;99.90;;;;;;476843;249;27530;-72
2022/03/10 07:30:18;;;;;;;15.38;9.75;;;0.00;99.90;;;;;;476832;249;27540;-72
2022/03/10 07:32:19;;;;;;;13.90;8.32;;;0.10;99.90;;;;;;476831;249;27589;-72
2022/03/10 07:34:20;;;;;;;11.07;7.72;;;0.20;99.90;;;;;;476818;249;27657;-72
2022/03/10 07:36:22;;;;;;;12.30;8.15;;;0.20;99.90;;;;;;476849;249;27880;-74
2022/03/10 07:38:23;;;;;;;13.07;8.52;;;0.30;99.90;;;;;;476862;249;27697;-72
2022/03/10 07:40:24;;;;;;;16.42;9.27;;;0.30;99.90;;;;;;476819;249;28089;-72
2022/03/10 07:42:25;;;;;;;12.32;8.98;;;0.40;99.90;;;;;;476826;249;27982;-72
2022/03/10 07:44:27;;;;;;;14.75;8.50;;;0.50;99.90;;;;;;476832;249;28142;-72
2022/03/10 07:46:28;;;;;;;11.25;7.78;;;0.50;99.90;;;;;;476864;249;27647;-74
2022/03/10 07:48:29;;;;;;;13.15;8.23;;;0.60;99.90;;;;;;476860;249;27599;-72
2022/03/10 07:50:30;;;;;;;11.70;7.70;;;0.70;99.90;;;;;;476855;249;27718;-72
2022/03/10 07:52:32;;;;;;;15.10;8.27;;;0.80;99.90;;;;;;476827;249;27497;-72
2022/03/10 07:54:33;;;;;;;13.25;8.45;;;0.90;99.90;;;;;;476806;248;27577;-72
2022/03/10 07:56:34;;;;;;;10.30;7.57;;;1.00;99.90;;;;;;476817;249;27940;-75
2022/03/10 07:58:35;;;;;;;13.73;8.80;;;1.00;99.90;;;;;;476827;249;27567;-72
2022/03/10 08:00:37;;;;;;;11.23;8.20;;;1.20;99.90;;;;;;476806;248;28379;-71
2022/03/10 08:02:38;;;;;;;15.63;8.68;;;1.30;99.90;;;;;;476824;249;28025;-72
2022/03/10 08:04:39;;;;;;;11.38;7.87;;;1.40;99.90;;;;;;476813;249;28038;-72
2022/03/10 08:06:40;;;;;;;12.90;8.63;;;1.40;99.90;;;;;;476870;249;27702;-73
2022/03/10 08:08:43;;;;;;;13.88;9.77;;;1.60;99.90;;;;;;476852;249;27523;-72
2022/03/10 08:10:43;;;;;;;15.57;8.85;;;1.60;99.90;;;;;;476704;249;27561;-72
2022/03/10 08:12:44;;;;;;;13.65;9.50;;;1.80;99.90;;;;;;476839;249;27519;-72
2022/03/10 08:14:45;;;;;;;10.73;7.90;;;1.90;99.90;;;;;;476845;247;27537;-72
2022/03/10 08:16:47;;;;;;;12.68;8.57;;;2.10;99.90;;;;;;476833;249;27540;-75
2022/03/10 08:18:49;;;;;;;13.25;8.80;;;2.30;99.90;;;;;;476820;249;27521;-72
2022/03/10 08:20:49;;;;;;;11.00;8.35;;;2.50;99.90;;;;;;476807;249;28107;-73
2022/03/10 08:22:50;;;;;;;12.85;8.60;;;2.70;99.90;;;;;;476887;249;27975;-72
2022/03/10 08:24:52;;;;;;;18.35;10.05;;;2.90;99.90;;;;;;476880;248;28025;-73
2022/03/10 08:26:53;;;;;;;14.02;8.82;;;3.20;99.90;;;;;;476876;249;27566;-72
2022/03/10 08:28:54;;;;;;;21.33;10.10;;;3.80;99.90;;;;;;476887;249;27628;-72
2022/03/10 08:30:56;;;;;;;17.05;8.98;;;4.60;99.90;;;;;;476837;249;27618;-72
2022/03/10 08:32:57;;;;;;;16.55;10.50;;;5.00;99.90;;;;;;476790;249;27524;-71
2022/03/10 08:34:58;;;;;;;18.42;10.60;;;5.60;99.90;;;;;;476849;249;27543;-72
2022/03/10 08:36:59;;;;;;;16.87;10.18;;;5.90;99.90;;;;;;476943;249;27540;-72
2022/03/10 08:39:00;;;;;;;15.57;9.98;;;6.00;99.90;;;;;;476865;246;28062;-72
2022/03/10 08:41:02;;;;;;;20.55;10.55;;;6.10;99.90;;;;;;476811;249;28045;-73
2022/03/10 08:43:05;;;;;;;18.25;10.98;;;6.10;99.90;;;;;;476844;249;27560;-72
2022/03/10 08:45:04;;;;;;;19.65;10.38;;;6.40;99.90;;;;;;476751;249;27637;-72
2022/03/10 08:47:05;;;;;;;13.38;8.95;;;6.40;99.90;;;;;;476849;249;27625;-73
2022/03/10 08:49:07;;;;;;;14.80;9.35;;;6.10;99.90;;;;;;476863;249;27540;-72
2022/03/10 08:51:08;;;;;;;14.52;9.43;;;6.10;99.90;;;;;;476860;249;28098;-73
2022/03/10 08:53:09;;;;;;;14.27;8.68;;;6.20;99.90;;;;;;476872;249;27971;-72
2022/03/10 08:55:11;;;;;;;16.62;9.68;;;6.30;99.90;;;;;;476894;249;27632;-72
2022/03/10 08:57:12;;;;;;;16.73;10.38;;;6.60;99.90;;;;;;476853;249;27539;-72
2022/03/10 08:59:13;;;;;;;16.60;9.60;;;6.90;99.90;;;;;;476891;249;27687;-72
2022/03/10 09:01:14;;;;;;;14.25;9.85;;;6.90;99.90;;;;;;476884;249;27574;-73
2022/03/10 09:03:16;;;;;;;16.83;10.52;;;7.10;99.90;;;;;;476813;249;28065;-72
2022/03/10 09:05:17;;;;;;;14.68;9.32;;;6.90;99.90;;;;;;476851;249;27558;-71
2022/03/10 09:07:18;;;;;;;13.65;9.50;;;6.70;99.90;;;;;;476850;249;27595;-72
2022/03/10 09:09:19;;;;;;;13.30;9.15;;;6.70;99.90;;;;;;476886;249;27520;-72
2022/03/10 09:11:21;;;;;;;15.55;9.35;;;6.90;99.90;;;;;;476904;249;27601;-72
2022/03/10 09:13:22;;;;;;;13.02;8.88;;;7.30;99.50;;;;;;476873;249;28029;-71
2022/03/10 09:15:23;;;;;;;12.37;8.85;;;7.50;99.00;;;;;;476859;249;28131;-72
2022/03/10 09:17:24;;;;;;;12.95;8.50;;;7.50;99.00;;;;;;476873;249;27661;-73
2022/03/10 09:19:26;;;;;;;15.50;9.50;;;7.70;98.40;;;;;;476870;249;27520;-72
2022/03/10 09:21:28;;;;;;;14.02;9.38;;;7.80;98.50;;;;;;476885;249;28897;-72
2022/03/10 09:23:28;;;;;;;13.20;8.57;;;7.50;99.60;;;;;;476833;249;27502;-71
2022/03/10 09:25:29;;;;;;;14.43;8.97;;;7.70;98.40;;;;;;476865;249;28267;-71
2022/03/10 09:27:31;;;;;;;12.50;8.37;;;7.90;98.10;;;;;;476849;249;28610;-72
2022/03/10 09:29:32;;;;;;;13.77;9.67;;;7.80;97.60;;;;;;476814;249;28333;-72
2022/03/10 09:31:33;;;;;;;12.57;8.70;;;8.10;97.00;;;;;;476847;249;28560;-72
2022/03/10 09:33:34;;;;;;;12.37;8.00;;;8.00;97.80;;;;;;476820;249;28080;-72
2022/03/10 09:35:36;;;;;;;15.60;9.43;;;8.10;96.90;;;;;;476832;248;28040;-72
2022/03/10 09:37:37;;;;;;;14.87;9.10;;;8.40;96.30;;;;;;476897;249;27805;-75
2022/03/10 09:39:38;;;;;;;14.03;9.53;;;8.50;95.30;;;;;;476855;249;27748;-72
2022/03/10 09:41:39;;;;;;;13.57;8.00;;;8.60;95.80;;;;;;476851;249;27986;-72
2022/03/10 09:43:41;;;;;;;12.87;8.90;;;8.60;94.40;;;;;;476842;249;28096;-72
2022/03/10 09:45:42;;;;;;;14.03;8.80;;;8.70;94.60;;;;;;476860;249;28232;-72
2022/03/10 09:47:44;;;;;;;14.30;9.50;;;8.80;94.70;;;;;;476902;249;27783;-75
2022/03/10 09:49:45;;;;;;;12.97;9.10;;;8.90;93.90;;;;;;476882;249;28101;-71
2022/03/10 09:51:46;;;;;;;15.23;8.50;;;9.20;93.70;;;;;;476863;249;28504;-72
2022/03/10 09:53:47;;;;;;;17.60;8.77;;;9.20;93.90;;;;;;476852;249;28569;-71
2022/03/10 09:55:48;;;;;;;13.70;8.53;;;9.00;94.10;;;;;;476862;249;28525;-72
2022/03/10 09:57:49;;;;;;;13.83;8.17;;;9.00;93.80;;;;;;476872;249;28445;-72
2022/03/10 09:59:51;;;;;;;12.03;9.10;;;9.30;93.00;;;;;;476877;249;28094;-72
2022/03/10 10:01:53;;;;;;;15.43;9.00;;;9.40;93.40;;;;;;476848;249;28185;-72
2022/03/10 10:03:53;;;;;;;12.23;8.27;;;9.50;92.70;;;;;;476786;249;28167;-72
2022/03/10 10:05:54;;;;;;;12.70;8.83;;;9.50;92.20;;;;;;476848;249;28040;-71
2022/03/10 10:07:56;;;;;;;9.53;8.20;;;9.60;92.10;;;;;;476878;249;27911;-74
2022/03/10 10:09:57;;;;;;;12.20;9.00;;;9.60;90.70;;;;;;476874;249;27991;-72
2022/03/10 10:11:58;;;;;;;16.17;8.97;;;9.60;91.80;;;;;;476857;249;28104;-72
2022/03/10 10:13:59;;;;;;;11.70;8.20;;;9.90;91.70;;;;;;476849;249;28283;-71
2022/03/10 10:16:01;;;;;;;11.33;8.60;;;10.00;90.80;;;;;;476858;249;28457;-71
2022/03/10 10:18:02;;;;;;;12.27;8.20;;;10.00;90.90;;;;;;476874;249;28571;-73
2022/03/10 10:20:03;;;;;;;10.30;7.90;;;10.00;90.30;;;;;;476848;249;28173;-72
2022/03/10 10:22:04;;;;;;;11.40;7.37;;;9.90;89.70;;;;;;476852;249;28043;-72
2022/03/10 10:24:06;;;;;;;10.57;7.30;;;10.00;90.30;;;;;;476860;249;27610;-71
2022/03/10 10:26:07;;;;;;;12.07;8.80;;;9.90;89.70;;;;;;476848;249;28021;-72
2022/03/10 10:28:08;;;;;;;11.40;7.67;;;10.20;89.20;;;;;;476897;249;27921;-74
2022/03/10 10:30:10;;;;;;;11.00;7.20;;;10.30;87.60;;;;;;476866;249;28086;-71
2022/03/10 10:32:11;;;;;;;10.43;7.00;;;10.30;87.90;;;;;;476839;249;28021;-72
2022/03/10 10:34:12;;;;;;;11.40;7.10;;;10.20;88.30;;;;;;476854;249;27973;-71